createdAt,value
2018-01-15T00:00:59.564Z,98307.48
2018-01-15T00:02:02.957Z,98304.31
2018-01-15T00:03:05.877Z,98307.52
2018-01-15T00:04:08.866Z,98302.78
2018-01-15T00:05:11.829Z,98303.31
2018-01-15T00:06:14.742Z,98304.09
2018-01-15T00:07:17.716Z,98294.89
2018-01-15T00:08:21.016Z,98296.11
2018-01-15T00:09:24.051Z,98295.51
2018-01-15T00:10:27.002Z,98289.69
2018-01-15T00:11:29.890Z,98286.83
2018-01-15T00:12:32.712Z,98287.13
2018-01-15T00:13:35.622Z,98285.00
2018-01-15T00:14:38.763Z,98284.58
2018-01-15T00:15:41.678Z,98275.38
2018-01-15T00:16:44.593Z,98275.12
2018-01-15T00:17:47.518Z,98272.00
2018-01-15T00:18:50.400Z,98280.02
2018-01-15T00:19:53.363Z,98274.12
2018-01-15T00:20:56.681Z,98272.25
2018-01-15T00:21:59.506Z,98271.65
2018-01-15T00:23:02.340Z,98265.06
2018-01-15T00:24:05.375Z,98266.02
2018-01-15T00:25:08.324Z,98263.72
2018-01-15T00:26:11.214Z,98264.27
2018-01-15T00:27:14.517Z,98264.83
2018-01-15T00:28:17.446Z,98265.57
2018-01-15T00:29:20.372Z,98263.33
2018-01-15T00:30:23.278Z,98261.67
2018-01-15T00:31:26.222Z,98261.36
2018-01-15T00:32:29.074Z,98257.94
2018-01-15T00:33:32.397Z,98249.48
2018-01-15T00:34:35.350Z,98252.95
2018-01-15T00:35:38.214Z,98250.52
2018-01-15T00:36:41.137Z,98241.63
2018-01-15T00:37:44.069Z,98236.59
2018-01-15T00:38:47.021Z,98245.27
2018-01-15T00:39:50.166Z,98243.14
2018-01-15T00:40:53.061Z,98241.02
2018-01-15T00:41:55.975Z,98234.43
2018-01-15T00:42:58.979Z,98229.53
2018-01-15T00:44:01.974Z,98237.51
2018-01-15T00:45:04.903Z,98231.48
2018-01-15T00:46:08.240Z,98229.27
2018-01-15T00:47:11.134Z,98233.52
2018-01-15T00:48:14.057Z,98244.09
2018-01-15T00:49:16.906Z,98233.39
2018-01-15T00:50:19.773Z,98236.08
2018-01-15T00:51:22.657Z,98232.18
2018-01-15T00:52:25.925Z,98224.89
2018-01-15T00:53:28.847Z,98220.94
2018-01-15T00:54:31.736Z,98216.16
2018-01-15T00:55:34.657Z,98215.20
2018-01-15T00:56:37.561Z,98220.41
2018-01-15T00:57:40.473Z,98216.84
2018-01-15T00:58:43.825Z,98218.36
2018-01-15T00:59:46.733Z,98223.22
2018-01-15T01:00:49.633Z,98217.23
2018-01-15T01:01:52.563Z,98210.72
2018-01-15T01:02:55.490Z,98219.22
2018-01-15T01:03:58.521Z,98213.45
2018-01-15T01:05:01.873Z,98209.03
2018-01-15T01:06:04.969Z,98200.40
2018-01-15T01:07:08.359Z,98201.61
2018-01-15T01:08:11.376Z,98204.94
2018-01-15T01:09:14.261Z,98211.53
2018-01-15T01:10:17.237Z,98202.92
2018-01-15T01:11:20.521Z,98207.56
2018-01-15T01:12:23.502Z,98207.95
2018-01-15T01:13:26.412Z,98207.19
2018-01-15T01:14:29.433Z,98205.52
2018-01-15T01:15:32.365Z,98206.09
2018-01-15T01:16:35.790Z,98199.54
2018-01-15T01:17:39.202Z,98207.75
2018-01-15T01:18:42.163Z,98199.72
2018-01-15T01:19:45.082Z,98197.20
2018-01-15T01:20:48.021Z,98195.47
2018-01-15T01:21:50.916Z,98191.25
2018-01-15T01:22:54.180Z,98187.30
2018-01-15T01:23:57.146Z,98194.20
2018-01-15T01:25:00.067Z,98196.81
2018-01-15T01:26:02.977Z,98183.36
2018-01-15T01:27:05.775Z,98187.78
2018-01-15T01:28:08.602Z,98191.05
2018-01-15T01:29:11.765Z,98188.34
2018-01-15T01:30:14.550Z,98181.41
2018-01-15T01:31:17.292Z,98184.48
2018-01-15T01:32:20.066Z,98185.52
2018-01-15T01:33:22.897Z,98181.34
2018-01-15T01:34:25.829Z,98188.42
2018-01-15T01:35:30.082Z,98188.59
2018-01-15T01:36:32.883Z,98190.80
2018-01-15T01:37:35.784Z,98190.05
2018-01-15T01:38:38.697Z,98186.97
2018-01-15T01:39:41.624Z,98197.56
2018-01-15T01:40:44.513Z,98185.55
2018-01-15T01:41:47.776Z,98190.97
2018-01-15T01:42:50.664Z,98184.59
2018-01-15T01:43:53.582Z,98184.81
2018-01-15T01:44:56.492Z,98185.59
2018-01-15T01:45:59.306Z,98176.91
2018-01-15T01:47:02.050Z,98181.55
2018-01-15T01:48:05.236Z,98171.78
2018-01-15T01:49:07.968Z,98178.13
2018-01-15T01:50:10.758Z,98167.00
2018-01-15T01:51:13.654Z,98173.02
2018-01-15T01:52:16.541Z,98172.95
2018-01-15T01:53:19.475Z,98177.38
2018-01-15T01:54:22.832Z,98172.63
2018-01-15T01:55:25.741Z,98162.44
2018-01-15T01:56:28.682Z,98170.30
2018-01-15T01:57:31.580Z,98168.07
2018-01-15T01:58:34.477Z,98167.75
2018-01-15T01:59:37.437Z,98171.54
2018-01-15T02:00:40.683Z,98168.11
2018-01-15T02:01:43.625Z,98165.45
2018-01-15T02:02:46.555Z,98167.19
2018-01-15T02:03:49.485Z,98160.84
2018-01-15T02:04:52.441Z,98157.52
2018-01-15T02:05:55.346Z,98169.45
2018-01-15T02:06:59.753Z,98163.92
2018-01-15T02:08:02.693Z,98156.87
2018-01-15T02:09:05.641Z,98164.81
2018-01-15T02:10:08.560Z,98161.52
2018-01-15T02:11:11.480Z,98160.95
2018-01-15T02:12:14.359Z,98166.41
2018-01-15T02:13:17.641Z,98162.41
2018-01-15T02:14:20.566Z,98164.10
2018-01-15T02:15:23.482Z,98160.84
2018-01-15T02:16:26.411Z,98162.41
2018-01-15T02:17:29.323Z,98163.11
2018-01-15T02:18:32.219Z,98157.88
2018-01-15T02:19:35.506Z,98162.55
2018-01-15T02:20:38.440Z,98160.77
2018-01-15T02:21:41.339Z,98158.65
2018-01-15T02:22:44.279Z,98154.92
2018-01-15T02:23:47.166Z,98154.64
2018-01-15T02:24:50.146Z,98151.95
2018-01-15T02:25:53.531Z,98153.29
2018-01-15T02:26:56.452Z,98147.35
2018-01-15T02:27:59.362Z,98147.31
2018-01-15T02:29:02.307Z,98140.83
2018-01-15T02:30:22.381Z,98147.27
2018-01-15T02:31:25.715Z,98144.62
2018-01-15T02:32:28.539Z,98146.15
2018-01-15T02:33:31.465Z,98146.81
2018-01-15T02:34:34.280Z,98139.63
2018-01-15T02:35:37.265Z,98144.97
2018-01-15T02:36:40.192Z,98135.38
2018-01-15T02:37:43.607Z,98133.84
2018-01-15T02:38:46.607Z,98131.16
2018-01-15T02:39:49.582Z,98129.19
2018-01-15T02:40:52.495Z,98123.38
2018-01-15T02:41:55.457Z,98128.58
2018-01-15T02:42:58.417Z,98124.30
2018-01-15T02:44:01.714Z,98115.27
2018-01-15T02:45:04.632Z,98109.24
2018-01-15T02:46:07.606Z,98108.47
2018-01-15T02:47:10.570Z,98103.44
2018-01-15T02:48:13.592Z,98109.92
2018-01-15T02:49:16.520Z,98106.17
2018-01-15T02:50:19.951Z,98104.30
2018-01-15T02:51:22.868Z,98104.53
2018-01-15T02:52:25.770Z,98098.86
2018-01-15T02:53:28.732Z,98096.39
2018-01-15T02:54:31.662Z,98093.69
2018-01-15T02:55:34.581Z,98096.35
2018-01-15T02:56:37.919Z,98093.45
2018-01-15T02:57:40.787Z,98088.42
2018-01-15T02:58:43.711Z,98089.98
2018-01-15T02:59:46.635Z,98090.73
2018-01-15T03:00:49.542Z,98081.81
2018-01-15T03:01:52.435Z,98087.22
2018-01-15T03:02:55.782Z,98087.11
2018-01-15T03:03:58.754Z,98088.84
2018-01-15T03:05:01.702Z,98088.24
2018-01-15T03:06:04.625Z,98090.02
2018-01-15T03:07:07.577Z,98085.97
2018-01-15T03:08:10.583Z,98092.31
2018-01-15T03:09:13.886Z,98098.41
2018-01-15T03:10:16.792Z,98082.80
2018-01-15T03:11:19.698Z,98087.64
2018-01-15T03:12:22.581Z,98081.20
2018-01-15T03:13:25.482Z,98086.05
2018-01-15T03:14:28.409Z,98080.28
2018-01-15T03:15:31.698Z,98076.99
2018-01-15T03:16:34.700Z,98077.51
2018-01-15T03:17:37.675Z,98081.34
2018-01-15T03:18:40.612Z,98079.63
2018-01-15T03:19:43.551Z,98075.74
2018-01-15T03:20:46.462Z,98075.56
2018-01-15T03:21:50.638Z,98077.33
2018-01-15T03:22:53.511Z,98068.80
2018-01-15T03:23:56.335Z,98068.62
2018-01-15T03:24:59.196Z,98071.95
2018-01-15T03:26:02.131Z,98060.61
2018-01-15T03:27:05.067Z,98066.52
2018-01-15T03:28:08.507Z,98065.31
2018-01-15T03:29:11.471Z,98066.16
2018-01-15T03:30:14.411Z,98059.81
2018-01-15T03:31:17.339Z,98054.19
2018-01-15T03:32:20.260Z,98056.84
2018-01-15T03:33:23.170Z,98057.12
2018-01-15T03:34:26.502Z,98051.97
2018-01-15T03:35:29.447Z,98054.16
2018-01-15T03:36:32.378Z,98053.11
2018-01-15T03:37:35.305Z,98051.91
2018-01-15T03:38:38.241Z,98048.12
2018-01-15T03:39:41.141Z,98045.93
2018-01-15T03:40:44.359Z,98050.56
2018-01-15T03:41:47.271Z,98046.74
2018-01-15T03:42:50.185Z,98054.78
2018-01-15T03:43:53.113Z,98050.98
2018-01-15T03:44:56.028Z,98048.53
2018-01-15T03:45:58.884Z,98044.20
2018-01-15T03:47:02.142Z,98052.09
2018-01-15T03:48:04.955Z,98043.69
2018-01-15T03:49:07.882Z,98041.39
2018-01-15T03:50:10.773Z,98040.04
2018-01-15T03:51:13.729Z,98036.57
2018-01-15T03:52:16.696Z,98032.53
2018-01-15T03:53:20.055Z,98022.16
2018-01-15T03:54:22.984Z,98017.72
2018-01-15T03:55:25.918Z,98010.84
2018-01-15T03:56:28.905Z,98016.08
2018-01-15T03:57:31.907Z,98012.75
2018-01-15T03:58:34.887Z,98008.12
2018-01-15T03:59:38.339Z,98004.92
2018-01-15T04:00:41.297Z,98009.34
2018-01-15T04:01:44.202Z,98005.72
2018-01-15T04:02:47.167Z,98001.48
2018-01-15T04:03:50.084Z,97998.24
2018-01-15T04:04:53.181Z,97998.87
2018-01-15T04:05:56.577Z,97990.53
2018-01-15T04:06:59.520Z,97994.41
2018-01-15T04:08:02.447Z,97993.06
2018-01-15T04:09:05.385Z,97988.48
2018-01-15T04:10:08.332Z,97997.16
2018-01-15T04:11:11.308Z,97995.01
2018-01-15T04:12:14.711Z,97990.77
2018-01-15T04:13:17.625Z,97983.84
2018-01-15T04:14:20.543Z,97985.04
2018-01-15T04:15:23.412Z,97985.30
2018-01-15T04:16:26.252Z,97983.75
2018-01-15T04:17:29.077Z,97978.78
2018-01-15T04:18:32.503Z,97972.02
2018-01-15T04:19:35.444Z,97974.61
2018-01-15T04:20:38.380Z,97972.69
2018-01-15T04:21:41.280Z,97969.25
2018-01-15T04:22:44.209Z,97962.75
2018-01-15T04:23:47.158Z,97967.20
2018-01-15T04:24:50.544Z,97965.47
2018-01-15T04:25:53.446Z,97958.40
2018-01-15T04:26:56.362Z,97961.45
2018-01-15T04:27:59.263Z,97955.50
2018-01-15T04:29:02.202Z,97948.53
2018-01-15T04:30:05.121Z,97957.95
2018-01-15T04:31:08.434Z,97961.61
2018-01-15T04:32:11.354Z,97953.22
2018-01-15T04:33:14.254Z,97955.56
2018-01-15T04:34:17.185Z,97957.69
2018-01-15T04:35:20.117Z,97946.73
2018-01-15T04:36:23.198Z,97952.98
2018-01-15T04:37:26.584Z,97950.20
2018-01-15T04:38:29.558Z,97945.94
2018-01-15T04:39:32.474Z,97947.48
2018-01-15T04:40:35.430Z,97947.11
2018-01-15T04:41:38.366Z,97940.98
2018-01-15T04:42:41.274Z,97940.96
2018-01-15T04:43:44.515Z,97937.89
2018-01-15T04:44:47.420Z,97940.34
2018-01-15T04:45:50.343Z,97939.80
2018-01-15T04:46:53.330Z,97939.05
2018-01-15T04:47:56.291Z,97942.52
2018-01-15T04:48:59.230Z,97947.72
2018-01-15T04:50:02.488Z,97937.18
2018-01-15T04:51:05.410Z,97932.52
2018-01-15T04:52:08.735Z,97933.14
2018-01-15T04:53:11.673Z,97922.75
2018-01-15T04:54:14.528Z,97929.95
2018-01-15T04:55:17.428Z,97924.92
2018-01-15T04:56:20.733Z,97927.57
2018-01-15T04:57:23.600Z,97922.88
2018-01-15T04:58:26.486Z,97925.63
2018-01-15T04:59:29.407Z,97927.77
2018-01-15T05:00:32.383Z,97926.86
2018-01-15T05:01:35.318Z,97924.72
2018-01-15T05:02:38.655Z,97923.38
2018-01-15T05:03:41.584Z,97918.21
2018-01-15T05:04:44.488Z,97920.86
2018-01-15T05:05:47.450Z,97920.86
2018-01-15T05:06:50.403Z,97922.62
2018-01-15T05:07:53.308Z,97917.41
2018-01-15T05:08:56.652Z,97914.72
2018-01-15T05:09:59.617Z,97916.11
2018-01-15T05:11:02.553Z,97915.17
2018-01-15T05:12:05.519Z,97912.50
2018-01-15T05:13:08.448Z,97911.93
2018-01-15T05:14:11.336Z,97913.44
2018-01-15T05:15:14.742Z,97918.05
2018-01-15T05:16:17.635Z,97916.88
2018-01-15T05:17:20.576Z,97918.62
2018-01-15T05:18:23.409Z,97916.75
2018-01-15T05:19:26.278Z,97918.48
2018-01-15T05:20:29.208Z,97914.83
2018-01-15T05:21:32.556Z,97908.27
2018-01-15T05:22:35.432Z,97908.48
2018-01-15T05:23:38.338Z,97907.25
2018-01-15T05:24:41.185Z,97901.86
2018-01-15T05:25:44.040Z,97903.58
2018-01-15T05:26:46.897Z,97906.27
2018-01-15T05:27:50.273Z,97901.91
2018-01-15T05:28:53.149Z,97902.50
2018-01-15T05:29:55.999Z,97901.17
2018-01-15T05:30:58.942Z,97903.44
2018-01-15T05:32:01.868Z,97897.44
2018-01-15T05:33:04.740Z,97900.27
2018-01-15T05:34:07.650Z,97890.84
2018-01-15T05:35:10.563Z,97891.08
2018-01-15T05:36:13.471Z,97892.62
2018-01-15T05:37:16.427Z,97900.47
2018-01-15T05:38:19.330Z,97888.97
2018-01-15T05:39:22.713Z,97893.39
2018-01-15T05:40:25.648Z,97892.83
2018-01-15T05:41:28.641Z,97884.97
2018-01-15T05:42:31.545Z,97894.58
2018-01-15T05:43:34.478Z,97900.34
2018-01-15T05:44:37.470Z,97901.12
2018-01-15T05:45:40.756Z,97895.52
2018-01-15T05:46:43.776Z,97896.30
2018-01-15T05:47:46.704Z,97903.78
2018-01-15T05:48:49.609Z,97902.44
2018-01-15T05:49:52.547Z,97892.45
2018-01-15T05:50:55.503Z,97895.70
2018-01-15T05:51:58.789Z,97902.06
2018-01-15T05:53:01.704Z,97894.83
2018-01-15T05:54:04.653Z,97898.59
2018-01-15T05:55:07.576Z,97900.70
2018-01-15T05:56:10.514Z,97896.06
2018-01-15T05:57:13.526Z,97897.23
2018-01-15T05:58:16.891Z,97890.70
2018-01-15T05:59:19.821Z,97897.05
2018-01-15T06:00:22.831Z,97887.05
2018-01-15T06:01:25.788Z,97887.66
2018-01-15T06:02:28.662Z,97887.68
2018-01-15T06:03:31.570Z,97888.31
2018-01-15T06:04:34.988Z,97878.41
2018-01-15T06:05:37.938Z,97876.13
2018-01-15T06:06:40.854Z,97874.42
2018-01-15T06:07:44.128Z,97876.13
2018-01-15T06:08:47.062Z,97874.19
2018-01-15T06:09:50.082Z,97874.93
2018-01-15T06:10:53.446Z,97875.91
2018-01-15T06:11:56.430Z,97876.49
2018-01-15T06:12:59.330Z,97869.73
2018-01-15T06:14:02.311Z,97871.31
2018-01-15T06:15:05.219Z,97866.36
2018-01-15T06:16:08.456Z,97869.80
2018-01-15T06:17:11.729Z,97869.38
2018-01-15T06:18:14.918Z,97871.11
2018-01-15T06:19:17.972Z,97866.52
2018-01-15T06:20:20.889Z,97871.36
2018-01-15T06:21:23.841Z,97863.64
2018-01-15T06:22:27.216Z,97869.25
2018-01-15T06:23:30.166Z,97866.78
2018-01-15T06:24:33.186Z,97862.56
2018-01-15T06:25:36.104Z,97857.54
2018-01-15T06:26:39.068Z,97853.34
2018-01-15T06:27:42.017Z,97851.57
2018-01-15T06:28:45.426Z,97849.27
2018-01-15T06:29:49.163Z,97851.61
2018-01-15T06:30:52.105Z,97847.95
2018-01-15T06:31:55.015Z,97847.02
2018-01-15T06:32:57.926Z,97849.16
2018-01-15T06:34:00.834Z,97847.03
2018-01-15T06:35:04.288Z,97846.05
2018-01-15T06:36:07.209Z,97849.91
2018-01-15T06:37:10.142Z,97847.39
2018-01-15T06:38:13.108Z,97845.22
2018-01-15T06:39:16.086Z,97857.00
2018-01-15T06:40:19.007Z,97851.04
2018-01-15T06:41:22.305Z,97855.51
2018-01-15T06:42:25.247Z,97853.34
2018-01-15T06:43:28.154Z,97858.39
2018-01-15T06:44:31.093Z,97859.51
2018-01-15T06:45:34.079Z,97851.77
2018-01-15T06:46:37.027Z,97847.70
2018-01-15T06:47:40.368Z,97851.15
2018-01-15T06:48:44.967Z,97846.55
2018-01-15T06:49:48.019Z,97854.64
2018-01-15T06:50:50.958Z,97847.84
2018-01-15T06:51:53.882Z,97850.17
2018-01-15T06:52:56.902Z,97850.91
2018-01-15T06:54:00.292Z,97852.02
2018-01-15T06:55:03.295Z,97838.76
2018-01-15T06:56:06.171Z,97840.53
2018-01-15T06:57:09.110Z,97846.84
2018-01-15T06:58:12.061Z,97836.05
2018-01-15T06:59:15.031Z,97838.95
2018-01-15T07:00:18.363Z,97840.47
2018-01-15T07:01:21.336Z,97834.73
2018-01-15T07:02:24.337Z,97834.14
2018-01-15T07:03:27.274Z,97834.13
2018-01-15T07:04:30.209Z,97828.55
2018-01-15T07:05:33.132Z,97829.17
2018-01-15T07:06:36.404Z,97830.70
2018-01-15T07:07:39.399Z,97826.44
2018-01-15T07:08:42.357Z,97826.84
2018-01-15T07:09:45.395Z,97835.73
2018-01-15T07:10:48.475Z,97831.52
2018-01-15T07:11:51.449Z,97833.68
2018-01-15T07:12:54.846Z,97833.30
2018-01-15T07:13:57.852Z,97826.55
2018-01-15T07:15:00.825Z,97825.05
2018-01-15T07:16:03.866Z,97830.64
2018-01-15T07:17:06.729Z,97827.17
2018-01-15T07:18:09.601Z,97822.95
2018-01-15T07:19:13.020Z,97829.87
2018-01-15T07:20:16.019Z,97831.07
2018-01-15T07:21:18.988Z,97837.66
2018-01-15T07:22:22.048Z,97833.83
2018-01-15T07:23:25.107Z,97832.50
2018-01-15T07:24:28.025Z,97833.09
2018-01-15T07:25:31.254Z,97832.91
2018-01-15T07:26:34.257Z,97826.01
2018-01-15T07:27:37.167Z,97828.86
2018-01-15T07:28:40.187Z,97824.77
2018-01-15T07:29:43.098Z,97825.58
2018-01-15T07:30:46.085Z,97825.52
2018-01-15T07:31:49.418Z,97827.06
2018-01-15T07:32:52.335Z,97811.63
2018-01-15T07:33:55.625Z,97800.48
2018-01-15T07:34:58.712Z,97806.27
2018-01-15T07:36:01.692Z,97808.01
2018-01-15T07:37:05.015Z,97794.33
2018-01-15T07:39:19.716Z,97797.81
2018-01-15T07:40:22.664Z,97805.59
2018-01-15T07:41:25.598Z,97806.77
2018-01-15T07:42:28.512Z,97808.12
2018-01-15T07:44:47.279Z,97798.91
2018-01-15T07:45:50.427Z,97796.01
2018-01-15T07:46:53.406Z,97798.33
2018-01-15T07:47:56.377Z,97809.31
2018-01-15T07:48:59.302Z,97801.88
2018-01-15T07:50:02.258Z,97800.34
2018-01-15T07:51:05.687Z,97799.17
2018-01-15T07:52:08.660Z,97798.02
2018-01-15T07:53:11.626Z,97801.72
2018-01-15T07:54:14.568Z,97803.08
2018-01-15T07:55:18.295Z,97794.42
2018-01-15T07:56:21.248Z,97799.22
2018-01-15T07:57:24.555Z,97796.36
2018-01-15T07:58:27.472Z,97793.88
2018-01-15T07:59:30.399Z,97784.05
2018-01-15T08:00:33.376Z,97795.58
2018-01-15T08:01:36.340Z,97783.25
2018-01-15T08:02:39.300Z,97791.12
2018-01-15T08:03:42.551Z,97784.22
2018-01-15T08:04:45.573Z,97791.58
2018-01-15T08:05:48.585Z,97779.06
2018-01-15T08:06:51.604Z,97782.33
2018-01-15T08:07:54.580Z,97784.61
2018-01-15T08:08:57.519Z,97775.76
2018-01-15T08:10:00.848Z,97781.54
2018-01-15T08:11:04.426Z,97775.39
2018-01-15T08:12:07.330Z,97769.22
2018-01-15T08:13:10.289Z,97767.66
2018-01-15T08:14:13.215Z,97760.14
2018-01-15T08:15:16.314Z,97758.16
2018-01-15T08:16:19.729Z,97764.34
2018-01-15T08:17:22.651Z,97756.28
2018-01-15T08:18:26.415Z,97757.41
2018-01-15T08:19:29.252Z,97754.92
2018-01-15T08:20:32.232Z,97753.18
2018-01-15T08:21:35.645Z,97759.91
2018-01-15T08:22:39.059Z,97753.59
2018-01-15T08:23:42.112Z,97744.36
2018-01-15T08:25:47.629Z,97749.56
2018-01-15T08:26:50.768Z,97741.84
2018-01-15T08:27:53.628Z,97744.17
2018-01-15T08:28:56.787Z,97744.55
2018-01-15T08:29:59.733Z,97736.68
2018-01-15T08:31:02.590Z,97739.97
2018-01-15T08:32:05.488Z,97744.01
2018-01-15T08:33:08.406Z,97741.72
2018-01-15T08:34:11.503Z,97737.67
2018-01-15T08:35:14.908Z,97730.36
2018-01-15T08:36:17.915Z,97737.50
2018-01-15T08:37:20.865Z,97727.84
2018-01-15T08:38:23.835Z,97729.41
2018-01-15T08:39:26.783Z,97726.87
2018-01-15T08:40:29.731Z,97722.61
2018-01-15T08:41:33.017Z,97729.00
2018-01-15T08:42:36.336Z,97727.66
2018-01-15T08:43:39.271Z,97734.80
2018-01-15T08:44:42.203Z,97736.51
2018-01-15T08:45:45.223Z,97730.92
2018-01-15T08:46:48.201Z,97726.88
2018-01-15T08:47:51.674Z,97724.38
2018-01-15T08:48:54.579Z,97730.54
2018-01-15T08:49:57.518Z,97731.15
2018-01-15T08:51:00.478Z,97727.67
2018-01-15T08:52:03.414Z,97731.53
2018-01-15T08:53:06.324Z,97726.52
2018-01-15T08:54:09.703Z,97728.66
2018-01-15T08:55:13.044Z,97730.61
2018-01-15T08:56:16.538Z,97726.17
2018-01-15T08:57:19.470Z,97724.20
2018-01-15T08:58:23.482Z,97719.41
2018-01-15T08:59:26.971Z,97716.32
2018-01-15T09:00:30.201Z,97718.64
2018-01-15T09:01:33.104Z,97708.27
2018-01-15T09:02:36.031Z,97704.22
2018-01-15T09:03:38.978Z,97709.63
2018-01-15T09:04:41.940Z,97700.16
2018-01-15T09:05:44.908Z,97698.83
2018-01-15T09:06:48.207Z,97697.11
2018-01-15T09:07:51.152Z,97705.21
2018-01-15T09:08:54.122Z,97699.80
2018-01-15T09:09:57.055Z,97695.00
2018-01-15T09:10:59.933Z,97695.59
2018-01-15T09:12:02.824Z,97696.16
2018-01-15T09:13:06.306Z,97700.78
2018-01-15T09:14:09.226Z,97698.88
2018-01-15T09:15:12.156Z,97686.92
2018-01-15T09:16:15.075Z,97691.73
2018-01-15T09:17:18.070Z,97692.92
2018-01-15T09:18:21.082Z,97686.78
2018-01-15T09:19:24.324Z,97688.88
2018-01-15T09:20:27.235Z,97680.03
2018-01-15T09:21:30.272Z,97681.95
2018-01-15T09:22:33.303Z,97677.70
2018-01-15T09:23:36.231Z,97674.04
2018-01-15T09:24:39.218Z,97677.70
2018-01-15T09:25:42.966Z,97672.12
2018-01-15T09:26:45.968Z,97672.89
2018-01-15T09:27:48.983Z,97674.23
2018-01-15T09:28:52.591Z,97669.80
2018-01-15T09:29:55.766Z,97673.66
2018-01-15T09:30:58.712Z,97669.04
2018-01-15T09:32:02.205Z,97674.45
2018-01-15T09:33:05.119Z,97673.88
2018-01-15T09:34:09.164Z,97666.16
2018-01-15T09:35:12.096Z,97663.47
2018-01-15T09:36:15.101Z,97666.36
2018-01-15T09:37:18.039Z,97671.75
2018-01-15T09:38:21.460Z,97664.24
2018-01-15T09:39:24.428Z,97660.97
2018-01-15T09:40:27.430Z,97653.44
2018-01-15T09:41:30.366Z,97657.28
2018-01-15T09:42:33.375Z,97650.55
2018-01-15T09:43:36.295Z,97653.05
2018-01-15T09:44:39.798Z,97650.74
2018-01-15T09:45:42.774Z,97650.75
2018-01-15T09:46:46.061Z,97656.35
2018-01-15T09:47:49.333Z,97656.15
2018-01-15T09:48:52.261Z,97651.54
2018-01-15T09:49:55.220Z,97648.43
2018-01-15T09:50:58.639Z,97646.89
2018-01-15T09:52:01.572Z,97649.01
2018-01-15T09:53:04.621Z,97643.80
2018-01-15T09:54:07.565Z,97638.79
2018-01-15T09:55:11.507Z,97639.95
2018-01-15T09:56:14.524Z,97637.05
2018-01-15T09:57:17.908Z,97629.72
2018-01-15T09:58:20.954Z,97635.89
2018-01-15T09:59:23.889Z,97628.77
2018-01-15T10:00:26.867Z,97639.57
2018-01-15T10:01:29.795Z,97636.48
2018-01-15T10:02:32.763Z,97636.09
2018-01-15T10:03:36.147Z,97636.84
2018-01-15T10:04:39.074Z,97632.22
2018-01-15T10:05:42.089Z,97632.03
2018-01-15T10:06:45.025Z,97637.23
2018-01-15T10:07:48.077Z,97641.48
2018-01-15T10:08:51.009Z,97633.00
2018-01-15T10:09:54.394Z,97624.91
2018-01-15T10:10:57.346Z,97618.33
2018-01-15T10:12:00.443Z,97616.81
2018-01-15T10:13:03.457Z,97611.22
2018-01-15T10:14:06.407Z,97618.53
2018-01-15T10:15:09.371Z,97605.82
2018-01-15T10:16:12.730Z,97607.94
2018-01-15T10:17:15.760Z,97608.34
2018-01-15T10:18:18.736Z,97601.00
2018-01-15T10:19:22.706Z,97589.62
2018-01-15T10:20:25.663Z,97592.91
2018-01-15T10:21:28.580Z,97587.89
2018-01-15T10:22:31.970Z,97590.95
2018-01-15T10:23:34.922Z,97592.89
2018-01-15T10:24:37.922Z,97590.95
2018-01-15T10:25:40.817Z,97582.67
2018-01-15T10:26:43.738Z,97583.24
2018-01-15T10:27:46.710Z,97578.23
2018-01-15T10:28:50.026Z,97580.74
2018-01-15T10:29:52.954Z,97577.86
2018-01-15T10:30:55.919Z,97568.21
2018-01-15T10:31:58.853Z,97573.61
2018-01-15T10:33:01.759Z,97568.78
2018-01-15T10:34:04.694Z,97573.20
2018-01-15T10:35:07.919Z,97557.19
2018-01-15T10:36:10.820Z,97547.93
2018-01-15T10:37:13.759Z,97549.88
2018-01-15T10:38:16.698Z,97542.75
2018-01-15T10:39:19.639Z,97547.92
2018-01-15T10:40:22.560Z,97538.09
2018-01-15T10:41:26.041Z,97533.27
2018-01-15T10:42:29.050Z,97534.62
2018-01-15T10:43:31.924Z,97533.24
2018-01-15T10:44:34.871Z,97524.94
2018-01-15T10:45:37.830Z,97530.16
2018-01-15T10:46:40.861Z,97529.57
2018-01-15T10:47:43.869Z,97521.08
2018-01-15T10:48:46.817Z,97521.47
2018-01-15T10:49:49.786Z,97507.19
2018-01-15T10:50:52.734Z,97515.27
2018-01-15T10:51:55.785Z,97515.64
2018-01-15T10:52:58.765Z,97514.14
2018-01-15T10:54:02.166Z,97498.89
2018-01-15T10:55:05.088Z,97505.06
2018-01-15T10:56:08.031Z,97496.73
2018-01-15T10:57:10.974Z,97489.20
2018-01-15T10:58:13.963Z,97488.05
2018-01-15T10:59:16.894Z,97485.92
2018-01-15T11:00:24.175Z,97483.80
2018-01-15T11:01:28.132Z,97488.27
2018-01-15T11:02:31.090Z,97482.48
2018-01-15T11:03:34.048Z,97487.27
2018-01-15T11:04:37.010Z,97481.28
2018-01-15T11:05:40.031Z,97483.98
2018-01-15T11:06:43.479Z,97477.42
2018-01-15T11:07:46.518Z,97476.84
2018-01-15T11:08:49.502Z,97477.03
2018-01-15T11:09:52.475Z,97466.61
2018-01-15T11:10:55.457Z,97466.03
2018-01-15T11:11:58.443Z,97469.45
2018-01-15T11:13:01.703Z,97460.23
2018-01-15T11:14:04.674Z,97459.09
2018-01-15T11:15:07.731Z,97462.56
2018-01-15T11:16:10.804Z,97467.39
2018-01-15T11:17:13.757Z,97461.79
2018-01-15T11:18:16.765Z,97459.09
2018-01-15T11:19:20.255Z,97453.73
2018-01-15T11:20:23.204Z,97463.77
2018-01-15T11:21:26.154Z,97452.14
2018-01-15T11:22:29.161Z,97440.76
2018-01-15T11:23:32.126Z,97444.62
2018-01-15T11:24:35.106Z,97443.27
2018-01-15T11:25:38.492Z,97439.98
2018-01-15T11:26:41.505Z,97435.01
2018-01-15T11:27:44.403Z,97417.25
2018-01-15T11:28:47.348Z,97427.48
2018-01-15T11:29:50.311Z,97416.49
2018-01-15T11:30:53.300Z,97420.93
2018-01-15T11:31:56.725Z,97422.09
2018-01-15T11:32:59.683Z,97415.14
2018-01-15T11:34:02.667Z,97419.19
2018-01-15T11:35:05.598Z,97414.55
2018-01-15T11:36:08.527Z,97401.83
2018-01-15T11:37:11.516Z,97411.08
2018-01-15T11:38:14.782Z,97408.77
2018-01-15T11:39:17.787Z,97411.04
2018-01-15T11:40:20.745Z,97404.67
2018-01-15T11:41:23.716Z,97399.12
2018-01-15T11:43:40.647Z,97396.41
2018-01-15T11:44:43.712Z,97383.87
2018-01-15T11:45:46.709Z,97392.36
2018-01-15T11:46:49.698Z,97383.83
2018-01-15T11:47:52.614Z,97380.16
2018-01-15T11:48:55.548Z,97383.06
2018-01-15T11:49:58.816Z,97373.84
2018-01-15T11:51:01.777Z,97367.67
2018-01-15T11:52:04.722Z,97384.61
2018-01-15T11:53:07.696Z,97367.03
2018-01-15T11:54:10.665Z,97365.48
2018-01-15T11:55:13.630Z,97361.09
2018-01-15T11:56:16.925Z,97364.34
2018-01-15T11:57:19.908Z,97354.30
2018-01-15T11:58:23.958Z,97359.89
2018-01-15T11:59:26.895Z,97334.22
2018-01-15T12:00:29.867Z,97343.30
2018-01-15T12:01:32.867Z,97341.34
2018-01-15T12:02:36.222Z,97339.78
2018-01-15T12:03:39.229Z,97345.97
2018-01-15T12:04:42.191Z,97342.26
2018-01-15T12:07:03.478Z,97330.27
2018-01-15T12:08:06.976Z,97331.25
2018-01-15T12:09:10.306Z,97326.84
2018-01-15T12:10:13.158Z,97323.73
2018-01-15T12:12:30.446Z,97313.66
2018-01-15T12:13:33.356Z,97317.13
2018-01-15T12:14:37.007Z,97311.52
2018-01-15T12:15:39.940Z,97302.24
2018-01-15T12:16:42.912Z,97304.89
2018-01-15T12:17:45.800Z,97301.59
2018-01-15T12:18:49.162Z,97309.70
2018-01-15T12:21:06.337Z,97291.45
2018-01-15T12:22:09.375Z,97276.16
2018-01-15T12:23:12.482Z,97277.16
2018-01-15T12:24:16.054Z,97281.22
2018-01-15T12:25:18.957Z,97283.32
2018-01-15T12:26:21.997Z,97273.45
2018-01-15T12:27:25.463Z,97271.50
2018-01-15T12:28:28.391Z,97268.95
2018-01-15T12:29:31.369Z,97263.94